EW6944 Weather Reports


Display with metric or nautical units.
time (UTC)temp
F
wind
direction
speed
MPH
gust
MPH
rain 1hr
in
rain 24hr
in
rain mn
in
humidity
%
barometer
mb
20190220223232 34 244 0.0 1.0 0.22 0.93 0.93 95 1021.0
20190220222732 34 244 0.0 2.0 0.23 0.91 0.91 95 1020.7
20190220222231 34 244 0.0 2.0 0.25 0.90 0.90 95 1020.7
20190220221732 34 244 1.0 2.0 0.24 0.88 0.88 95 1021.1
20190220221232 34 244 1.0 2.0 0.23 0.86 0.87 95 1021.3
20190220220732 34 248 1.0 2.0 0.24 0.85 0.85 95 1021.3
20190220220232 34 248 1.0 2.0 0.23 0.83 0.83 95 1021.4
20190220215731 34 249 0.0 3.0 0.24 0.81 0.81 95 1021.4
20190220215232 34 249 1.0 3.0 0.31 0.79 0.79 95 1021.2
20190220214731 34 80 2.0 7.0 0.38 0.77 0.78 95 1021.3
20190220214232 34 63 2.0 7.0 0.38 0.75 0.75 95 1021.3
20190220213732 34 51 3.0 9.0 0.37 0.73 0.73 95 1021.3
20190220213230 34 53 3.0 9.0 0.37 0.71 0.72 95 1021.5
20190220212729 34 75 2.0 7.0 0.35 0.68 0.69 95 1021.4
20190220212229 34 111 1.0 5.0 0.35 0.65 0.65 95 1021.7
20190220211728 34 329 2.0 3.0 0.39 0.64 0.64 95 1022.0
20190220211227 34 329 2.0 3.0 0.44 0.63 0.63 95 1021.8
20190220210741 34 278 2.0 4.0 0.46 0.61 0.61 94 1021.0
20190220210228 34 208 2.0 4.0 0.46 0.60 0.60 94 1021.2
20190220205725 34 207 2.0 4.0 0.44 0.57 0.58 94 1021.1
20190220205224 34 15 2.0 5.0 0.34 0.46 0.48 94 1021.1
20190220204724 34 202 2.0 6.0 0.27 0.39 0.39 94 1021.3
20190220204227 34 103 2.0 6.0 0.26 0.37 0.38 94 1021.5
20190220203722 34 253 2.0 4.0 0.26 0.36 0.37 94 1021.5
20190220203222 34 117 1.0 3.0 0.25 0.34 0.35 94 1021.5
20190220202722 34 190 1.0 2.0 0.25 0.33 0.33 94 1021.9
20190220202222 34 188 1.0 2.0 0.22 0.29 0.30 93 1022.1
20190220201722 35 188 1.0 2.0 0.20 0.25 0.26 94 1022.3
20190220201220 35 191 1.0 4.0 0.15 0.19 0.20 93 1022.5
20190220200720 35 188 2.0 4.0 0.12 0.15 0.15 94 1022.6
20190220200220 35 216 2.0 3.0 0.12 0.14 0.14 94 1022.3
20190220195717 35 246 2.0 4.0 0.13 0.13 0.13 94 1022.3
20190220195216 35 52 1.0 4.0 0.12 0.12 0.12 93 1021.8
20190220194717 35 235 1.0 3.0 0.12 0.12 0.12 93 1021.6
20190220194216 35 238 1.0 3.0 0.11 0.11 0.11 93 1021.6
20190220193716 35 237 1.0 3.0 0.10 0.10 0.10 93 1021.6
20190220193216 35 111 1.0 4.0 0.09 0.09 0.10 93 1021.6
20190220192716 35 55 2.0 4.0 0.08 0.08 0.08 93 1021.4
20190220192216 35 189 2.0 4.0 0.07 0.07 0.07 93 1021.6
20190220191716 35 262 2.0 4.0 0.05 0.05 0.06 93 1021.8
20190220191216 35 55 2.0 4.0 0.04 0.04 0.04 93 1021.9
20190220190715 35 236 1.0 8.0 0.03 0.03 0.03 93 1022.2
20190220190215 35 315 2.0 8.0 0.02 0.02 0.02 93 1022.2
20190220185714 35 141 2.0 8.0 0.00 0.00 0.01 92 1022.2
20190220185214 35 297 2.0 5.0 0.00 0.00 0.00 92 1022.2
20190220184714 35 277 2.0 5.0 0.00 0.00 0.00 92 1022.5
20190220184214 35 201 2.0 7.0 0.00 0.00 0.00 92 1022.3
20190220183714 35 290 2.0 7.0 0.00 0.00 0.00 92 1022.4
20190220183214 35 155 3.0 10.0 0.00 0.00 0.00 92 1022.5
20190220182714 35 129 3.0 10.0 0.00 0.00 0.00 92 1022.5
20190220182214 35 35 2.0 6.0 0.00 0.00 0.00 92 1022.8
20190220181714 35 250 2.0 4.0 0.00 0.00 0.00 92 1022.9
20190220181212 35 244 1.0 3.0 0.00 0.00 0.00 92 1023.2
20190220180713 35 252 1.0 3.0 0.00 0.00 0.00 92 1023.4
20190220180212 35 246 2.0 4.0 0.00 0.00 0.00 92 1023.2
20190220175716 35 250 2.0 5.0 0.00 0.00 0.00 92 1023.4
20190220175213 35 163 2.0 5.0 0.00 0.00 0.00 92 1023.2
20190220174713 35 322 1.0 4.0 0.00 0.00 0.00 92 1023.5
20190220174211 35 257 2.0 5.0 0.00 0.00 0.00 92 1023.4
20190220173712 35 96 3.0 6.0 0.00 0.00 0.00 92 1023.5
20190220173212 35 314 3.0 6.0 0.00 0.00 0.00 91 1023.5
20190220172710 35 86 1.0 4.0 0.00 0.00 0.00 91 1023.5
20190220172208 35 46 1.0 4.0 0.00 0.00 0.00 91 1023.8
20190220171708 35 202 3.0 6.0 0.00 0.00 0.00 91 1023.8
20190220171208 35 22 4.0 10.0 0.00 0.00 0.00 91 1024.0
20190220170708 35 51 4.0 10.0 0.00 0.00 0.00 91 1023.9
20190220170208 34 55 4.0 11.0 0.00 0.00 0.00 91 1023.9
20190220165708 34 54 4.0 11.0 0.00 0.00 0.00 91 1024.1
20190220165207 34 104 4.0 9.0 0.00 0.00 0.00 92 1024.1
20190220164707 34 336 4.0 13.0 0.00 0.00 0.00 91 1024.1
20190220164208 34 56 3.0 13.0 0.00 0.00 0.00 92 1024.3
20190220163708 34 315 2.0 10.0 0.00 0.00 0.00 91 1024.2
20190220163208 34 72 3.0 11.0 0.00 0.00 0.00 91 1024.4
20190220162707 34 32 4.0 11.0 0.00 0.00 0.00 91 1024.4
20190220162208 34 80 4.0 13.0 0.00 0.00 0.00 91 1024.5
20190220161708 34 19 4.0 13.0 0.00 0.00 0.00 91 1024.5
20190220161208 34 41 4.0 12.0 0.00 0.00 0.00 91 1024.5
20190220160709 34 139 4.0 12.0 0.00 0.00 0.00 91 1024.4
20190220160208 34 107 4.0 10.0 0.00 0.00 0.00 91 1024.4
20190220155707 34 92 3.0 10.0 0.00 0.00 0.00 91 1024.3
20190220155207 34 45 3.0 10.0 0.00 0.00 0.00 90 1024.8
20190220154704 34 338 4.0 11.0 0.00 0.00 0.00 90 1024.9
20190220154206 34 346 4.0 11.0 0.00 0.00 0.00 90 1024.4
20190220153703 34 50 4.0 15.0 0.00 0.00 0.00 90 1024.3
20190220153205 34 34 5.0 15.0 0.00 0.00 0.00 90 1024.0
20190220152703 34 320 5.0 12.0 0.00 0.00 0.00 89 1023.9
20190220152204 34 69 5.0 16.0 0.00 0.00 0.00 89 1024.1
20190220151704 34 50 6.0 16.0 0.00 0.00 0.00 89 1024.1
20190220151203 34 19 5.0 12.0 0.00 0.00 0.00 89 1024.3
20190220150709 34 46 6.0 16.0 0.00 0.00 0.00 89 1024.1
20190220150220 34 329 7.0 16.0 0.00 0.00 0.00 89 1024.4
20190220145703 34 98 5.0 12.0 0.00 0.00 0.00 90 1024.3
20190220145203 34 348 5.0 13.0 0.00 0.00 0.00 90 1024.3
20190220144704 34 104 5.0 13.0 0.00 0.00 0.00 90 1024.3
20190220144204 34 102 4.0 12.0 0.00 0.00 0.00 90 1024.4
20190220143704 34 324 4.0 15.0 0.00 0.00 0.00 90 1024.5
20190220143203 34 0 4.0 15.0 0.00 0.00 0.00 91 1024.5
20190220142703 34 50 4.0 10.0 0.00 0.00 0.00 91 1024.7
20190220142203 34 36 5.0 14.0 0.00 0.00 0.00 91 1024.5
20190220141701 34 56 4.0 14.0 0.00 0.00 0.00 91 1024.5
20190220141201 34 5 2.0 10.0 0.00 0.00 0.00 91 1024.5
20190220140701 33 127 3.0 9.0 0.00 0.00 0.00 91 1024.5
20190220140201 33 47 3.0 9.0 0.00 0.00 0.00 91 1024.4
20190220135702 33 61 2.0 7.0 0.00 0.00 0.00 91 1024.4
20190220135202 33 78 4.0 11.0 0.00 0.00 0.00 91 1024.4
20190220134701 33 79 4.0 11.0 0.00 0.00 0.00 91 1024.4
20190220134201 33 71 3.0 9.0 0.00 0.00 0.00 91 1024.5
20190220133659 33 355 2.0 9.0 0.00 0.00 0.00 91 1024.7
20190220133159 33 337 2.0 8.0 0.00 0.00 0.00 91 1024.7
20190220132659 33 47 4.0 11.0 0.00 0.00 0.00 91 1024.8
20190220132159 33 48 3.0 11.0 0.00 0.00 0.00 91 1024.7
20190220131659 33 298 3.0 9.0 0.00 0.00 0.00 91 1024.8
20190220131157 33 57 4.0 10.0 0.00 0.00 0.00 92 1024.9
20190220130658 33 332 4.0 10.0 0.00 0.00 0.00 92 1024.4
20190220130157 32 296 4.0 14.0 0.00 0.00 0.00 92 1024.5
20190220125657 32 355 4.0 14.0 0.00 0.00 0.00 92 1024.3
20190220125158 32 123 5.0 12.0 0.00 0.00 0.00 92 1024.5
20190220124655 32 33 5.0 12.0 0.00 0.00 0.00 92 1024.5
20190220124155 32 38 5.0 12.0 0.00 0.00 0.00 92 1024.5
20190220123655 32 234 5.0 12.0 0.00 0.00 0.00 92 1024.4
20190220123155 32 355 5.0 12.0 0.00 0.00 0.00 92 1024.3
20190220122655 32 82 4.0 11.0 0.00 0.00 0.00 92 1024.5
20190220122156 32 57 3.0 11.0 0.00 0.00 0.00 92 1024.2
20190220121655 32 47 2.0 10.0 0.00 0.00 0.00 92 1024.5
20190220121155 32 296 3.0 9.0 0.00 0.00 0.00 92 1024.9
20190220120655 32 78 4.0 13.0 0.00 0.00 0.00 92 1024.7
20190220120155 32 313 3.0 13.0 0.00 0.00 0.00 92 1024.8
20190220115655 32 78 3.0 9.0 0.00 0.00 0.00 92 1024.5
20190220115152 32 252 3.0 6.0 0.00 0.00 0.00 92 1024.9
20190220114653 32 346 3.0 6.0 0.00 0.00 0.00 92 1024.9
20190220114153 32 9 4.0 11.0 0.00 0.00 0.00 92 1025.0
20190220113653 32 44 4.0 11.0 0.00 0.00 0.00 92 1024.8
20190220113153 32 57 3.0 11.0 0.00 0.00 0.00 92 1024.9
20190220112652 32 64 3.0 8.0 0.00 0.00 0.00 92 1025.0
20190220112151 32 74 3.0 7.0 0.00 0.00 0.00 92 1024.8
20190220111651 32 244 3.0 7.0 0.00 0.00 0.00 92 1024.8
20190220111151 32 22 4.0 8.0 0.00 0.00 0.00 92 1024.8
20190220110650 32 305 4.0 10.0 0.00 0.00 0.00 92 1024.3
20190220110151 32 284 4.0 15.0 0.00 0.00 0.00 92 1024.4
20190220105651 32 51 3.0 15.0 0.00 0.00 0.00 92 1024.7
20190220105151 32 306 3.0 13.0 0.00 0.00 0.00 93 1024.4
20190220104651 32 22 3.0 13.0 0.00 0.00 0.00 93 1024.5
20190220104151 32 355 3.0 11.0 0.00 0.00 0.00 93 1024.8
20190220103651 32 73 3.0 11.0 0.00 0.00 0.00 93 1025.0
20190220103149 32 304 3.0 7.0 0.00 0.00 0.00 93 1025.0
20190220102648 32 82 3.0 9.0 0.00 0.00 0.00 93 1024.5
20190220102148 32 36 3.0 9.0 0.00 0.00 0.00 93 1024.4
20190220101649 32 346 3.0 6.0 0.00 0.00 0.00 93 1024.7
20190220101149 32 339 3.0 8.0 0.00 0.00 0.00 93 1024.8
20190220100649 32 63 3.0 8.0 0.00 0.00 0.00 93 1024.9
20190220100147 32 333 2.0 6.0 0.00 0.00 0.00 93 1024.7
20190220095646 32 326 2.0 6.0 0.00 0.00 0.00 93 1025.0
20190220095147 32 304 2.0 6.0 0.00 0.00 0.00 93 1025.0
20190220094647 32 266 2.0 6.0 0.00 0.00 0.00 93 1024.8
20190220094147 32 298 2.0 5.0 0.00 0.00 0.00 93 1024.3
20190220093646 32 315 2.0 6.0 0.00 0.00 0.00 93 1024.2
20190220093146 32 44 2.0 6.0 0.00 0.00 0.00 93 1024.1
20190220092647 32 319 2.0 6.0 0.00 0.00 0.00 93 1024.2
20190220092147 32 120 3.0 9.0 0.00 0.00 0.00 93 1024.3
20190220091646 32 250 3.0 9.0 0.00 0.00 0.00 93 1024.4
20190220091144 32 304 2.0 6.0 0.00 0.00 0.00 94 1024.8
20190220090645 32 0 2.0 8.0 0.00 0.00 0.00 94 1025.1
20190220090145 32 349 2.0 8.0 0.00 0.00 0.00 94 1025.2
20190220085644 32 298 3.0 10.0 0.00 0.00 0.00 94 1025.3
20190220085142 32 77 2.0 15.0 0.00 0.00 0.00 94 1025.1
20190220084642 32 5 1.0 15.0 0.00 0.00 0.00 94 1025.1
20190220084143 32 82 0.0 0.0 0.00 0.00 0.00 94 1025.3
20190220083643 33 351 0.0 0.0 0.00 0.00 0.00 94 1025.3
20190220083142 33 196 0.0 0.0 0.00 0.00 0.00 94 1025.3
20190220082642 33 5 0.0 0.0 0.00 0.00 0.00 94 1025.5
20190220082140 33 290 0.0 0.0 0.00 0.00 0.00 94 1025.9
20190220081641 33 326 0.0 0.0 0.00 0.00 0.00 94 1025.9
20190220081141 33 49 0.0 0.0 0.00 0.00 0.00 95 1026.1
20190220080640 33 194 0.0 0.0 0.00 0.00 0.00 95 1025.9
20190220080140 33 293 0.0 0.0 0.00 0.00 0.00 95 1025.9
20190220075641 33 195 0.0 0.0 0.00 0.00 0.00 95 1025.8
20190220075140 33 257 0.0 0.0 0.00 0.00 0.00 94 1026.6
20190220074640 33 264 0.0 0.0 0.00 0.00 0.00 94 1025.7
20190220074140 33 23 0.0 0.0 0.00 0.00 0.00 94 1024.9
20190220073641 33 109 0.0 0.0 0.00 0.00 0.00 94 1025.7
20190220073141 33 351 0.0 0.0 0.00 0.00 0.00 94 1026.2
20190220072640 33 223 0.0 0.0 0.00 0.00 0.00 94 1026.5
20190220072141 33 196 0.0 0.0 0.00 0.00 0.00 94 1026.1
20190220071640 33 209 0.0 0.0 0.00 0.00 0.00 94 1027.0
20190220071141 33 179 0.0 0.0 0.00 0.00 0.00 94 1027.3
20190220070640 33 163 0.0 0.0 0.00 0.00 0.00 94 1027.6
20190220070140 33 222 0.0 0.0 0.00 0.00 0.00 94 1027.9
20190220065640 33 193 0.0 0.0 0.00 0.00 0.00 94 1027.9
20190220065139 33 236 0.0 0.0 0.00 0.00 0.00 94 1028.0
20190220064636 33 253 0.0 0.0 0.00 0.00 0.00 94 1028.0
20190220064136 33 70 1.0 3.0 0.00 0.00 0.00 94 1027.9
20190220063634 33 68 2.0 5.0 0.00 0.00 0.00 94 1027.9
20190220063134 33 14 2.0 6.0 0.00 0.00 0.00 93 1028.0
20190220062635 33 40 0.0 6.0 0.00 0.00 0.00 93 1027.8
20190220062134 33 117 1.0 8.0 0.00 0.00 0.00 93 1028.1
20190220061635 33 336 2.0 8.0 0.00 0.00 0.00 93 1028.7
20190220061135 33 45 2.0 5.0 0.00 0.00 0.00 93 1027.8
20190220060634 33 47 1.0 4.0 0.00 0.00 0.00 93 1028.4
20190220060134 33 310 2.0 4.0 0.00 0.00 0.00 93 1029.1
20190220055634 33 22 2.0 3.0 0.00 0.00 0.00 92 1029.8
20190220055134 33 337 2.0 4.0 0.00 0.00 0.00 92 1029.9
20190220054634 33 304 1.0 4.0 0.00 0.00 0.00 92 1029.5
20190220054134 33 161 1.0 2.0 0.00 0.00 0.00 92 1028.7
20190220053633 33 154 2.0 8.0 0.00 0.00 0.00 92 1029.3
20190220053132 33 80 2.0 8.0 0.00 0.00 0.00 92 1029.3
20190220052632 33 99 2.0 5.0 0.00 0.00 0.00 91 1028.0
20190220052132 33 47 2.0 5.0 0.00 0.00 0.00 91 1029.0
20190220051630 33 76 2.0 5.0 0.00 0.00 0.00 91 1029.2
20190220051130 33 145 2.0 4.0 0.00 0.00 0.00 91 1029.3
20190220050630 33 63 2.0 9.0 0.00 0.00 0.00 91 1029.6
20190220050127 33 307 3.0 9.0 0.00 0.00 0.00 90 1029.6
20190220045626 33 5 3.0 6.0 0.00 0.00 0.00 90 1029.5
20190220045127 33 61 2.0 6.0 0.00 0.00 0.00 90 1030.4
20190220044627 33 84 1.0 6.0 0.00 0.00 0.00 89 1030.5
20190220044127 34 19 1.0 3.0 0.00 0.00 0.00 89 1030.8
20190220043627 34 227 1.0 4.0 0.00 0.00 0.00 88 1030.7
20190220043127 34 336 1.0 4.0 0.00 0.00 0.00 88 1030.6
20190220042627 34 330 1.0 4.0 0.00 0.00 0.00 88 1030.8
20190220042128 34 320 1.0 4.0 0.00 0.00 0.00 87 1030.8
20190220041628 34 314 1.0 4.0 0.00 0.00 0.00 86 1031.0
20190220041126 34 107 1.0 3.0 0.00 0.00 0.00 86 1031.0
20190220040626 35 348 1.0 3.0 0.00 0.00 0.00 85 1031.3
20190220040124 35 41 1.0 3.0 0.00 0.00 0.00 84 1031.5
20190220035624 35 84 2.0 7.0 0.00 0.00 0.00 84 1031.4
20190220035125 35 28 2.0 7.0 0.00 0.00 0.00 83 1031.3
20190220034625 35 65 2.0 4.0 0.00 0.00 0.00 82 1031.3
20190220034125 35 90 2.0 4.0 0.00 0.00 0.00 82 1031.2
20190220033625 36 104 2.0 5.0 0.00 0.00 0.00 81 1031.1
20190220033122 36 40 2.0 6.0 0.00 0.00 0.00 80 1030.9
20190220032622 36 350 3.0 8.0 0.00 0.00 0.00 79 1031.1
20190220032123 37 9 3.0 8.0 0.00 0.00 0.00 77 1031.2
20190220031623 37 37 2.0 9.0 0.00 0.00 0.00 75 1031.3
20190220031123 38 30 2.0 9.0 0.00 0.00 0.00 72 1031.4
20190220030622 38 278 2.0 7.0 0.00 0.00 0.00 69 1031.4
20190220030122 38 150 3.0 16.0 0.00 0.00 0.00 66 1031.2
20190220025623 38 78 3.0 16.0 0.00 0.00 0.00 64 1031.4
20190220025123 38 207 3.0 5.0 0.00 0.00 0.00 64 1031.3
20190220024622 38 187 2.0 7.0 0.00 0.00 0.00 63 1031.0
20190220024123 38 204 2.0 7.0 0.00 0.00 0.00 64 1030.5
20190220023623 38 90 2.0 8.0 0.00 0.00 0.00 63 1030.5
20190220023122 38 305 3.0 8.0 0.00 0.00 0.00 63 1030.8
20190220022622 38 294 2.0 7.0 0.00 0.00 0.00 65 1030.8
20190220022122 38 232 2.0 6.0 0.00 0.00 0.00 62 1030.8
20190220021623 38 248 2.0 4.0 0.00 0.00 0.00 62 1030.5
20190220021122 38 146 1.0 3.0 0.00 0.00 0.00 63 1030.4
20190220020622 39 292 1.0 3.0 0.00 0.00 0.00 63 1030.0
20190220020120 39 200 1.0 3.0 0.00 0.00 0.00 64 1030.2
20190220015620 39 200 1.0 4.0 0.00 0.00 0.00 64 1029.9
20190220015121 39 199 1.0 4.0 0.00 0.00 0.00 65 1030.0
20190220014620 39 283 1.0 3.0 0.00 0.00 0.00 64 1030.0
20190220014120 39 294 1.0 3.0 0.00 0.00 0.00 64 1030.2
20190220013620 39 294 0.0 2.0 0.00 0.00 0.00 63 1030.3
20190220013120 39 294 1.0 2.0 0.00 0.00 0.00 63 1030.0
20190220012618 39 294 1.0 4.0 0.00 0.00 0.00 62 1030.0
20190220012118 39 287 2.0 4.0 0.00 0.00 0.00 63 1030.3
20190220011618 39 296 1.0 4.0 0.00 0.00 0.00 63 1030.3
20190220011119 39 213 1.0 4.0 0.00 0.00 0.00 63 1030.2
20190220010619 39 135 1.0 5.0 0.00 0.00 0.00 63 1030.0
20190220010118 39 321 2.0 8.0 0.00 0.00 0.00 62 1030.3
20190220005616 39 86 2.0 8.0 0.00 0.00 0.00 62 1030.4
20190220005117 40 21 1.0 3.0 0.00 0.00 0.00 63 1030.4
20190220004617 40 138 1.0 3.0 0.00 0.00 0.00 64 1030.5
20190220004116 40 30 1.0 3.0 0.00 0.00 0.00 62 1030.7
20190220003614 40 80 2.0 5.0 0.00 0.00 0.00 62 1030.7
20190220003114 40 329 2.0 5.0 0.00 0.00 0.00 62 1030.8
20190220002614 40 347 2.0 5.0 0.00 0.00 0.00 62 1031.0
20190220002114 40 36 3.0 5.0 0.00 0.00 0.00 62 1031.0
20190220001611 40 340 3.0 8.0 0.00 0.00 0.00 63 1031.1
20190220001120 40 333 2.0 8.0 0.00 0.00 0.00 61 1031.2
20190220000616 40 78 2.0 8.0 0.00 0.00 0.00 62 1031.3
20190220000111 40 10 2.0 4.0 0.00 0.00 0.00 62 1031.3
20190219235612 40 293 2.0 4.0 0.00 0.00 0.00 62 1031.3
20190219235121 40 214 2.0 3.0 0.00 0.00 0.00 62 1031.4
20190219234610 41 283 2.0 4.0 0.00 0.00 0.00 62 1031.0
20190219234109 41 281 2.0 4.0 0.00 0.00 0.00 62 1030.6
20190219233610 41 282 2.0 8.0 0.00 0.00 0.00 61 1030.8
20190219233114 41 331 2.0 8.0 0.00 0.00 0.00 59 1030.6
20190219232608 41 33 2.0 9.0 0.00 0.00 0.00 59 1030.3
20190219232106 41 33 2.0 9.0 0.00 0.00 0.00 59 1030.3
20190219231607 41 42 2.0 5.0 0.00 0.00 0.00 61 1029.9
20190219231107 41 78 2.0 4.0 0.00 0.00 0.00 60 1029.9
20190219230607 41 327 2.0 5.0 0.00 0.00 0.00 62 1029.9
20190219230108 42 132 2.0 8.0 0.00 0.00 0.00 59 1029.8
20190219225611 42 44 2.0 8.0 0.00 0.00 0.00 58 1029.7
20190219225111 42 44 1.0 3.0 0.00 0.00 0.00 65 1029.5
20190219224606 42 53 1.0 2.0 0.00 0.00 0.00 60 1029.6
20190219224106 42 54 1.0 3.0 0.00 0.00 0.00 59 1029.7
20190219223606 42 49 1.0 3.0 0.00 0.00 0.00 60 1029.6